Morse, Louisiana
Current Conditions -  °F | °C
As of 9:20 PM on Monday 20 Oct 2014 (Local Time) from K3R7 Reporting Station
Clear Clear  
Wind Chill: 63°   Ceiling: Unl
Heat Index: 63°   Visibility: 10mi
Dew Point: 56°   Wind: 3mph
Humidity: 77%   Direction: 10°N
Pressure: 30.02"   Gusts: NA
Location:  30.12°N, 92.5°W
Report Text: K3R7 210220Z AUTO 01003KT 10SM CLR 17/13 A3002 RMK AO2 T01730132
Loading
Personal Weather Stations






























Interactive Weather Map
Tropical Storm Tracking
New forecast layout! Learn more

10-Day Weather Forecast

Advertisements
Track Severe Weather on mobile